createdAt,value
2023-01-29T00:00:24.671Z,9.30
2023-01-29T00:01:24.842Z,10.50
2023-01-29T00:02:25.121Z,10.70
2023-01-29T00:03:25.287Z,10.40
2023-01-29T00:04:25.363Z,11.10
2023-01-29T00:05:28.322Z,11.50
2023-01-29T00:06:25.719Z,11.10
2023-01-29T00:07:25.917Z,11.10
2023-01-29T00:08:26.065Z,10.60
2023-01-29T00:09:26.219Z,11.10
2023-01-29T00:10:26.416Z,11.30
2023-01-29T00:11:26.616Z,10.50
2023-01-29T00:12:26.795Z,11.40
2023-01-29T00:13:26.948Z,10.80
2023-01-29T00:14:27.139Z,10.60
2023-01-29T00:15:27.314Z,11.40
2023-01-29T00:16:27.476Z,12.30
2023-01-29T00:17:27.644Z,10.90
2023-01-29T00:18:27.794Z,11.20
2023-01-29T00:19:27.968Z,11.60
2023-01-29T00:20:28.116Z,10.80
2023-01-29T00:21:28.336Z,11.60
2023-01-29T00:22:28.501Z,12.30
2023-01-29T00:23:28.651Z,11.20
2023-01-29T00:24:28.946Z,11.90
2023-01-29T00:25:29.007Z,11.20
2023-01-29T00:26:29.220Z,12.80
2023-01-29T00:27:29.357Z,11.80
2023-01-29T00:28:29.567Z,11.90
2023-01-29T00:29:29.725Z,12.80
2023-01-29T00:30:29.885Z,12.70
2023-01-29T00:31:30.215Z,11.80
2023-01-29T00:32:30.249Z,11.00
2023-01-29T00:33:30.393Z,12.70
2023-01-29T00:34:30.607Z,11.80
2023-01-29T00:35:30.754Z,12.20
2023-01-29T00:36:30.977Z,11.90
2023-01-29T00:37:31.109Z,11.70
2023-01-29T00:38:31.300Z,11.60
2023-01-29T00:39:46.774Z,10.90
2023-01-29T00:40:32.659Z,10.80
2023-01-29T00:41:31.845Z,10.80
2023-01-29T00:42:31.999Z,13.40
2023-01-29T00:43:32.185Z,11.70
2023-01-29T00:44:32.391Z,10.80
2023-01-29T00:45:32.533Z,12.50
2023-01-29T00:46:32.749Z,11.70
2023-01-29T00:47:32.852Z,13.00
2023-01-29T00:48:33.040Z,11.40
2023-01-29T00:49:33.229Z,11.00
2023-01-29T00:50:33.390Z,12.60
2023-01-29T00:51:33.593Z,12.20
2023-01-29T00:52:33.739Z,12.00
2023-01-29T00:53:33.921Z,12.10
2023-01-29T00:54:34.112Z,11.80
2023-01-29T00:55:34.283Z,13.00
2023-01-29T00:56:34.431Z,11.10
2023-01-29T00:57:34.624Z,12.30
2023-01-29T00:58:34.807Z,11.80
2023-01-29T00:59:34.985Z,12.00
2023-01-29T01:00:35.199Z,11.90
2023-01-29T01:01:35.301Z,11.30
2023-01-29T01:02:35.480Z,12.30
2023-01-29T01:03:35.650Z,12.20
2023-01-29T01:04:35.793Z,11.80
2023-01-29T01:05:35.956Z,11.50
2023-01-29T01:06:36.155Z,11.80
2023-01-29T01:07:36.262Z,10.90
2023-01-29T01:08:36.460Z,12.50
2023-01-29T01:09:36.615Z,12.60
2023-01-29T01:10:36.773Z,12.50
2023-01-29T01:11:36.963Z,11.90
2023-01-29T01:12:37.149Z,12.10
2023-01-29T01:13:37.301Z,11.70
2023-01-29T01:14:37.493Z,12.90
2023-01-29T01:15:37.640Z,12.30
2023-01-29T01:16:37.939Z,12.20
2023-01-29T01:17:38.010Z,12.40
2023-01-29T01:18:38.229Z,12.70
2023-01-29T01:19:38.334Z,11.10
2023-01-29T01:20:38.556Z,12.90
2023-01-29T01:21:38.733Z,12.50
2023-01-29T01:22:38.875Z,13.60
2023-01-29T01:23:39.056Z,12.70
2023-01-29T01:24:39.250Z,12.40
2023-01-29T01:25:39.430Z,12.10
2023-01-29T01:26:39.596Z,13.90
2023-01-29T01:27:39.757Z,12.00
2023-01-29T01:28:39.911Z,12.10
2023-01-29T01:29:40.097Z,12.80
2023-01-29T01:30:40.294Z,12.10
2023-01-29T01:31:40.467Z,12.00
2023-01-29T01:32:40.601Z,12.30
2023-01-29T01:33:40.788Z,12.00
2023-01-29T01:34:40.947Z,14.90
2023-01-29T01:35:41.124Z,13.80
2023-01-29T01:36:41.347Z,13.00
2023-01-29T01:37:41.492Z,13.70
2023-01-29T01:38:41.647Z,12.60
2023-01-29T01:39:41.829Z,12.20
2023-01-29T01:40:42.028Z,13.50
2023-01-29T01:41:42.220Z,12.40
2023-01-29T01:42:42.421Z,13.40
2023-01-29T01:43:42.568Z,12.70
2023-01-29T01:44:42.748Z,12.80
2023-01-29T01:45:43.021Z,13.40
2023-01-29T01:46:43.139Z,12.40
2023-01-29T01:47:43.296Z,14.00
2023-01-29T01:48:43.441Z,13.20
2023-01-29T01:49:43.602Z,14.50
2023-01-29T01:50:43.763Z,12.30
2023-01-29T01:51:43.930Z,12.90
2023-01-29T01:52:44.078Z,13.00
2023-01-29T01:53:44.294Z,13.20
2023-01-29T01:54:44.463Z,13.50
2023-01-29T01:55:44.612Z,12.90
2023-01-29T01:56:44.754Z,12.20
2023-01-29T01:57:44.931Z,13.40
2023-01-29T01:58:45.075Z,12.60
2023-01-29T01:59:45.251Z,12.40
2023-01-29T02:00:45.419Z,13.30
2023-01-29T02:01:45.561Z,13.50
2023-01-29T02:02:45.712Z,13.10
2023-01-29T02:03:45.906Z,13.70
2023-01-29T02:04:46.035Z,12.70
2023-01-29T02:05:46.231Z,13.70
2023-01-29T02:06:46.389Z,12.40
2023-01-29T02:07:46.544Z,13.20
2023-01-29T02:08:46.738Z,13.60
2023-01-29T02:09:46.893Z,14.30
2023-01-29T02:10:47.058Z,12.30
2023-01-29T02:11:47.234Z,15.10
2023-01-29T02:12:47.413Z,13.50
2023-01-29T02:13:47.591Z,13.40
2023-01-29T02:14:47.733Z,13.50
2023-01-29T02:15:47.904Z,13.50
2023-01-29T02:16:48.077Z,13.30
2023-01-29T02:17:48.380Z,13.50
2023-01-29T02:18:48.463Z,13.90
2023-01-29T02:19:48.632Z,13.30
2023-01-29T02:20:48.773Z,14.20
2023-01-29T02:21:48.962Z,15.60
2023-01-29T02:22:49.155Z,13.80
2023-01-29T02:23:49.396Z,12.90
2023-01-29T02:24:49.530Z,13.90
2023-01-29T02:25:49.689Z,14.30
2023-01-29T02:26:49.834Z,13.20
2023-01-29T02:27:50.028Z,13.00
2023-01-29T02:28:50.205Z,13.20
2023-01-29T02:29:50.435Z,14.70
2023-01-29T02:30:50.649Z,14.00
2023-01-29T02:31:50.844Z,13.60
2023-01-29T02:32:50.906Z,15.00
2023-01-29T02:33:51.083Z,13.60
2023-01-29T02:34:51.256Z,14.40
2023-01-29T02:35:51.416Z,13.00
2023-01-29T02:36:51.605Z,15.00
2023-01-29T02:37:51.769Z,14.80
2023-01-29T02:38:51.950Z,14.50
2023-01-29T02:39:52.162Z,14.80
2023-01-29T02:40:52.306Z,13.70
2023-01-29T02:41:52.468Z,14.00
2023-01-29T02:42:52.646Z,14.70
2023-01-29T02:43:52.838Z,13.80
2023-01-29T02:44:53.029Z,14.10
2023-01-29T02:45:53.199Z,14.50
2023-01-29T02:46:53.339Z,13.20
2023-01-29T02:47:53.543Z,14.40
2023-01-29T02:48:53.716Z,14.10
2023-01-29T02:49:53.927Z,12.80
2023-01-29T02:50:54.070Z,14.80
2023-01-29T02:51:54.238Z,14.80
2023-01-29T02:52:54.417Z,13.70
2023-01-29T02:53:54.611Z,14.00
2023-01-29T02:54:54.809Z,13.90
2023-01-29T02:55:54.974Z,16.10
2023-01-29T02:56:55.121Z,14.00
2023-01-29T02:57:55.309Z,14.50
2023-01-29T02:58:55.470Z,14.90
2023-01-29T02:59:55.626Z,14.90
2023-01-29T03:00:55.862Z,14.50
2023-01-29T03:01:56.034Z,14.50
2023-01-29T03:02:56.163Z,13.90
2023-01-29T03:03:56.341Z,14.70
2023-01-29T03:04:56.531Z,14.00
2023-01-29T03:05:56.741Z,14.10
2023-01-29T03:06:56.904Z,14.40
2023-01-29T03:07:57.049Z,13.30
2023-01-29T03:08:57.204Z,14.80
2023-01-29T03:09:57.395Z,16.40
2023-01-29T03:10:57.566Z,14.70
2023-01-29T03:11:57.715Z,14.60
2023-01-29T03:12:57.872Z,15.40
2023-01-29T03:13:58.062Z,14.60
2023-01-29T03:14:58.237Z,14.10
2023-01-29T03:15:58.443Z,14.30
2023-01-29T03:16:58.588Z,15.00
2023-01-29T03:17:58.783Z,14.40
2023-01-29T03:18:58.954Z,14.40
2023-01-29T03:19:59.152Z,13.40
2023-01-29T03:20:59.325Z,13.70
2023-01-29T03:21:59.795Z,15.70
2023-01-29T03:22:59.653Z,14.60
2023-01-29T03:23:59.838Z,14.60
2023-01-29T03:24:59.994Z,13.20
2023-01-29T03:26:00.200Z,13.30
2023-01-29T03:27:00.347Z,14.30
2023-01-29T03:28:00.533Z,14.30
2023-01-29T03:29:00.685Z,13.80
2023-01-29T03:30:00.846Z,14.40
2023-01-29T03:31:01.013Z,15.30
2023-01-29T03:32:01.244Z,13.20
2023-01-29T03:33:01.345Z,14.20
2023-01-29T03:34:01.547Z,14.30
2023-01-29T03:35:01.674Z,15.70
2023-01-29T03:36:01.866Z,14.20
2023-01-29T03:37:02.030Z,14.20
2023-01-29T03:38:02.204Z,13.00
2023-01-29T03:39:02.356Z,14.70
2023-01-29T03:40:02.551Z,15.00
2023-01-29T03:41:02.714Z,14.20
2023-01-29T03:42:02.875Z,14.30
2023-01-29T03:43:03.080Z,14.90
2023-01-29T03:44:03.241Z,13.90
2023-01-29T03:45:03.403Z,15.30
2023-01-29T03:46:03.624Z,14.60
2023-01-29T03:47:03.767Z,15.00
2023-01-29T03:48:03.947Z,14.90
2023-01-29T03:49:04.088Z,13.90
2023-01-29T03:50:04.229Z,13.20
2023-01-29T03:51:04.389Z,14.60
2023-01-29T03:52:04.549Z,14.90
2023-01-29T03:53:04.760Z,15.60
2023-01-29T03:54:04.915Z,14.70
2023-01-29T03:55:05.138Z,14.00
2023-01-29T03:56:05.292Z,16.00
2023-01-29T03:57:05.452Z,14.10
2023-01-29T03:58:05.653Z,16.80
2023-01-29T03:59:05.804Z,15.80
2023-01-29T04:00:06.003Z,14.70
2023-01-29T04:01:06.252Z,14.70
2023-01-29T04:02:06.319Z,14.00
2023-01-29T04:03:06.522Z,14.50
2023-01-29T04:04:06.744Z,14.30
2023-01-29T04:05:06.852Z,15.70
2023-01-29T04:06:07.019Z,15.00
2023-01-29T04:07:07.176Z,16.40
2023-01-29T04:08:07.382Z,14.60
2023-01-29T04:09:07.532Z,15.10
2023-01-29T04:10:07.712Z,13.70
2023-01-29T04:11:07.861Z,15.30
2023-01-29T04:12:08.033Z,15.40
2023-01-29T04:13:08.222Z,12.90
2023-01-29T04:14:08.362Z,14.70
2023-01-29T04:15:08.530Z,15.70
2023-01-29T04:16:08.722Z,14.90
2023-01-29T04:17:08.867Z,14.40
2023-01-29T04:18:09.048Z,14.70
2023-01-29T04:19:09.213Z,15.30
2023-01-29T04:20:09.367Z,14.90
2023-01-29T04:21:09.526Z,16.70
2023-01-29T04:22:09.694Z,15.40
2023-01-29T04:23:09.894Z,15.50
2023-01-29T04:24:10.102Z,14.80
2023-01-29T04:25:10.234Z,15.70
2023-01-29T04:26:10.406Z,15.20
2023-01-29T04:27:10.558Z,14.70
2023-01-29T04:28:10.743Z,16.30
2023-01-29T04:29:10.898Z,15.30
2023-01-29T04:30:11.069Z,15.50
2023-01-29T04:31:11.325Z,15.30
2023-01-29T04:32:11.412Z,14.90
2023-01-29T04:33:11.596Z,15.30
2023-01-29T04:34:11.750Z,15.30
2023-01-29T04:35:11.921Z,15.10
2023-01-29T04:36:12.087Z,15.00
2023-01-29T04:37:12.251Z,15.00
2023-01-29T04:38:12.421Z,17.30
2023-01-29T04:39:12.578Z,16.70
2023-01-29T04:40:12.758Z,14.70
2023-01-29T04:41:12.906Z,17.10
2023-01-29T04:42:13.096Z,14.50
2023-01-29T04:43:13.261Z,14.60
2023-01-29T04:44:13.426Z,15.50
2023-01-29T04:45:13.595Z,17.30
2023-01-29T04:46:13.777Z,14.70
2023-01-29T04:47:13.947Z,16.60
2023-01-29T04:48:14.097Z,15.90
2023-01-29T04:49:14.258Z,15.90
2023-01-29T04:50:14.872Z,15.70
2023-01-29T04:51:14.582Z,14.90
2023-01-29T04:52:14.770Z,17.60
2023-01-29T04:53:14.929Z,16.20
2023-01-29T04:54:15.102Z,14.80
2023-01-29T04:55:15.279Z,16.20
2023-01-29T04:56:15.431Z,14.80
2023-01-29T04:57:15.609Z,17.60
2023-01-29T04:58:15.778Z,14.70
2023-01-29T04:59:15.931Z,15.00
2023-01-29T05:00:16.477Z,16.00
2023-01-29T05:01:16.259Z,15.70
2023-01-29T05:02:16.444Z,15.60
2023-01-29T05:03:16.610Z,15.40
2023-01-29T05:04:16.770Z,15.90
2023-01-29T05:05:16.931Z,16.30
2023-01-29T05:06:17.138Z,16.50
2023-01-29T05:07:17.299Z,15.70
2023-01-29T05:08:17.487Z,15.10
2023-01-29T05:09:17.621Z,15.60
2023-01-29T05:10:18.250Z,15.80
2023-01-29T05:11:17.989Z,16.20
2023-01-29T05:12:18.174Z,16.60
2023-01-29T05:13:18.331Z,16.00
2023-01-29T05:14:18.507Z,16.80
2023-01-29T05:15:18.643Z,16.30
2023-01-29T05:16:18.866Z,16.50
2023-01-29T05:17:19.038Z,16.00
2023-01-29T05:18:19.195Z,17.60
2023-01-29T05:19:19.357Z,18.20
2023-01-29T05:20:19.523Z,17.60
2023-01-29T05:21:19.696Z,16.40
2023-01-29T05:22:19.884Z,15.90
2023-01-29T05:23:20.032Z,16.80
2023-01-29T05:24:20.241Z,15.30
2023-01-29T05:25:20.364Z,15.90
2023-01-29T05:26:20.533Z,17.40
2023-01-29T05:27:20.713Z,17.70
2023-01-29T05:28:20.880Z,15.70
2023-01-29T05:29:21.034Z,16.60
2023-01-29T05:30:21.212Z,16.20
2023-01-29T05:31:21.411Z,16.10
2023-01-29T05:32:21.536Z,15.60
2023-01-29T05:33:21.694Z,16.00
2023-01-29T05:34:21.856Z,18.10
2023-01-29T05:35:22.020Z,15.60
2023-01-29T05:36:22.195Z,17.20
2023-01-29T05:37:22.366Z,18.50
2023-01-29T05:38:22.527Z,15.80
2023-01-29T05:39:22.688Z,16.40
2023-01-29T05:40:22.869Z,17.10
2023-01-29T05:41:23.054Z,17.20
2023-01-29T05:42:23.217Z,16.30
2023-01-29T05:43:23.402Z,16.20
2023-01-29T05:44:23.535Z,17.30
2023-01-29T05:45:23.705Z,16.80
2023-01-29T05:46:23.898Z,17.10
2023-01-29T05:47:24.045Z,16.60
2023-01-29T05:48:24.223Z,17.80
2023-01-29T05:49:24.385Z,17.30
2023-01-29T05:50:24.568Z,18.30
2023-01-29T05:51:24.753Z,18.70
2023-01-29T05:52:24.918Z,18.50
2023-01-29T05:53:25.079Z,15.50
2023-01-29T05:54:25.248Z,17.90
2023-01-29T05:55:25.428Z,17.80
2023-01-29T05:56:25.589Z,18.20
2023-01-29T05:57:25.760Z,18.50
2023-01-29T05:58:25.930Z,17.80
2023-01-29T05:59:26.099Z,16.50
2023-01-29T06:00:26.287Z,16.60
2023-01-29T06:01:26.458Z,17.40
2023-01-29T06:02:26.623Z,16.20
2023-01-29T06:03:26.793Z,18.20
2023-01-29T06:04:26.954Z,18.00
2023-01-29T06:05:27.141Z,18.50
2023-01-29T06:06:27.298Z,17.10
2023-01-29T06:07:27.465Z,17.90
2023-01-29T06:08:27.656Z,19.00
2023-01-29T06:09:27.820Z,18.70
2023-01-29T06:10:27.979Z,17.20
2023-01-29T06:11:28.163Z,18.70
2023-01-29T06:12:28.324Z,19.30
2023-01-29T06:13:28.522Z,19.30
2023-01-29T06:14:28.671Z,17.80
2023-01-29T06:15:28.850Z,18.40
2023-01-29T06:16:29.057Z,19.30
2023-01-29T06:17:29.193Z,18.80
2023-01-29T06:18:29.372Z,18.80
2023-01-29T06:19:29.528Z,18.10
2023-01-29T06:20:29.697Z,18.20
2023-01-29T06:21:29.864Z,18.00
2023-01-29T06:22:30.035Z,17.70
2023-01-29T06:23:30.223Z,19.10
2023-01-29T06:24:30.413Z,18.40
2023-01-29T06:25:30.574Z,17.70
2023-01-29T06:26:30.725Z,19.70
2023-01-29T06:27:30.919Z,19.40
2023-01-29T06:28:31.084Z,19.30
2023-01-29T06:29:31.245Z,17.90
2023-01-29T06:30:31.417Z,19.30
2023-01-29T06:31:39.739Z,19.20
2023-01-29T06:32:32.781Z,19.10
2023-01-29T06:33:31.962Z,18.50
2023-01-29T06:34:32.076Z,18.30
2023-01-29T06:35:32.245Z,18.40
2023-01-29T06:36:32.400Z,19.10
2023-01-29T06:37:32.585Z,20.20
2023-01-29T06:38:32.746Z,17.90
2023-01-29T06:39:32.918Z,21.20
2023-01-29T06:40:33.074Z,18.50
2023-01-29T06:41:33.244Z,18.10
2023-01-29T06:42:33.427Z,18.50
2023-01-29T06:43:33.612Z,19.50
2023-01-29T06:44:33.776Z,18.40
2023-01-29T06:45:33.979Z,19.30
2023-01-29T06:46:34.097Z,19.10
2023-01-29T06:47:34.268Z,19.50
2023-01-29T06:48:34.457Z,19.10
2023-01-29T06:49:34.625Z,18.30
2023-01-29T06:50:34.779Z,17.80
2023-01-29T06:51:34.957Z,18.80
2023-01-29T06:52:35.108Z,18.20
2023-01-29T06:53:35.289Z,21.10
2023-01-29T06:54:35.448Z,18.80
2023-01-29T06:55:35.620Z,19.30
2023-01-29T06:56:35.773Z,18.70
2023-01-29T06:57:35.944Z,18.90
2023-01-29T06:58:36.137Z,19.60
2023-01-29T06:59:36.290Z,18.70
2023-01-29T07:00:36.481Z,20.30
2023-01-29T07:01:36.948Z,18.60
2023-01-29T07:02:36.800Z,19.20
2023-01-29T07:03:36.981Z,20.10
2023-01-29T07:04:37.148Z,19.40
2023-01-29T07:05:37.325Z,19.50
2023-01-29T07:06:37.501Z,19.90
2023-01-29T07:07:37.689Z,18.70
2023-01-29T07:08:37.877Z,18.00
2023-01-29T07:09:38.030Z,19.60
2023-01-29T07:10:38.200Z,18.80
2023-01-29T07:11:38.373Z,19.20
2023-01-29T07:12:38.555Z,18.40
2023-01-29T07:13:38.753Z,19.60
2023-01-29T07:14:38.905Z,21.40
2023-01-29T07:15:39.083Z,19.20
2023-01-29T07:16:39.347Z,19.30
2023-01-29T07:17:40.421Z,19.60
2023-01-29T07:19:54.701Z,20.00
2023-01-29T07:20:54.875Z,19.80
2023-01-29T07:21:55.061Z,18.60
2023-01-29T07:22:55.253Z,18.90
2023-01-29T07:23:55.494Z,19.60
2023-01-29T07:24:55.623Z,18.60
2023-01-29T07:25:55.820Z,19.90
2023-01-29T07:26:55.988Z,20.40
2023-01-29T07:27:56.161Z,18.70
2023-01-29T07:28:56.357Z,19.60
2023-01-29T07:29:56.503Z,19.00
2023-01-29T07:30:56.692Z,20.90
2023-01-29T07:31:57.005Z,19.50
2023-01-29T07:32:57.042Z,18.60
2023-01-29T07:33:57.243Z,19.40
2023-01-29T07:34:57.394Z,18.30
2023-01-29T07:35:57.578Z,19.40
2023-01-29T07:36:57.725Z,19.10
2023-01-29T07:37:57.913Z,20.50
2023-01-29T07:38:58.125Z,20.70
2023-01-29T07:39:58.263Z,19.20
2023-01-29T07:40:58.460Z,20.00
2023-01-29T07:41:58.627Z,19.70
2023-01-29T07:42:58.799Z,19.30
2023-01-29T07:43:59.023Z,19.20
2023-01-29T07:44:59.174Z,20.00
2023-01-29T07:45:59.373Z,20.00
2023-01-29T07:46:59.549Z,19.50
2023-01-29T07:47:59.694Z,20.90
2023-01-29T07:48:59.886Z,20.20
2023-01-29T07:50:00.035Z,19.60
2023-01-29T07:51:00.203Z,19.70
2023-01-29T07:52:00.404Z,20.90
2023-01-29T07:53:00.589Z,20.60
2023-01-29T07:54:00.787Z,20.20
2023-01-29T07:55:00.934Z,19.60
2023-01-29T07:56:01.107Z,20.80
2023-01-29T07:57:01.307Z,21.60
2023-01-29T07:58:01.484Z,19.70
2023-01-29T07:59:01.646Z,20.10
2023-01-29T08:00:01.799Z,20.90
2023-01-29T08:01:01.993Z,20.90
2023-01-29T08:02:02.167Z,22.20
2023-01-29T08:03:02.296Z,19.10
2023-01-29T08:04:02.506Z,21.10
2023-01-29T08:05:02.637Z,18.70
2023-01-29T08:06:02.832Z,8.80
2023-01-29T08:07:02.988Z,10.40
2023-01-29T08:08:07.791Z,11.20
2023-01-29T08:09:03.364Z,11.50
2023-01-29T08:10:03.531Z,11.80
2023-01-29T08:11:03.717Z,12.90
2023-01-29T08:12:03.861Z,10.90
2023-01-29T08:13:04.050Z,14.60
2023-01-29T08:14:04.213Z,12.20
2023-01-29T08:15:04.360Z,11.90
2023-01-29T08:16:04.538Z,11.80
2023-01-29T08:17:04.693Z,10.90
2023-01-29T08:18:04.853Z,11.00
2023-01-29T08:19:05.020Z,12.10
2023-01-29T08:20:05.181Z,13.50
2023-01-29T08:21:05.345Z,16.50
2023-01-29T08:22:05.521Z,14.10
2023-01-29T08:23:05.711Z,14.90
2023-01-29T08:24:05.874Z,15.60
2023-01-29T08:25:08.576Z,16.10
2023-01-29T08:26:06.192Z,14.80
2023-01-29T08:27:06.392Z,14.50
2023-01-29T08:28:06.565Z,16.00
2023-01-29T08:29:06.724Z,17.70
2023-01-29T08:30:06.901Z,16.70
2023-01-29T08:31:07.085Z,16.70
2023-01-29T08:32:07.267Z,17.10
2023-01-29T08:33:07.437Z,18.80
2023-01-29T08:34:07.624Z,17.10
2023-01-29T08:35:07.817Z,19.00
2023-01-29T08:36:07.984Z,17.30
2023-01-29T08:37:08.143Z,19.90
2023-01-29T08:38:08.340Z,17.70
2023-01-29T08:39:08.521Z,18.30
2023-01-29T08:40:08.654Z,18.40
2023-01-29T08:41:08.815Z,19.30
2023-01-29T08:42:08.999Z,20.00
2023-01-29T08:43:09.664Z,19.60
2023-01-29T08:44:09.378Z,18.40
2023-01-29T08:45:09.529Z,30.00
2023-01-29T08:46:09.787Z,22.20
2023-01-29T08:47:09.875Z,20.70
2023-01-29T08:48:10.049Z,20.80
2023-01-29T08:49:10.226Z,20.50
2023-01-29T08:50:10.401Z,21.00
2023-01-29T08:51:10.557Z,20.70
2023-01-29T08:52:10.717Z,21.50
2023-01-29T08:53:10.895Z,21.00
2023-01-29T08:54:11.105Z,21.80
2023-01-29T08:55:11.251Z,21.50
2023-01-29T08:56:11.433Z,21.10
2023-01-29T08:57:11.577Z,19.50
2023-01-29T08:58:11.794Z,20.90
2023-01-29T08:59:11.938Z,22.60
2023-01-29T09:00:12.099Z,19.70
2023-01-29T09:01:12.311Z,19.70
2023-01-29T09:02:12.417Z,20.70
2023-01-29T09:03:12.601Z,20.20
2023-01-29T09:04:12.795Z,21.20
2023-01-29T09:05:12.950Z,20.30
2023-01-29T09:06:13.121Z,19.30
2023-01-29T09:07:13.258Z,19.80
2023-01-29T09:08:13.440Z,20.20
2023-01-29T09:09:13.660Z,21.40
2023-01-29T09:10:13.830Z,19.20
2023-01-29T09:11:13.970Z,21.50
2023-01-29T09:12:14.124Z,20.10
2023-01-29T09:13:14.311Z,19.80
2023-01-29T09:14:14.527Z,18.90
2023-01-29T09:15:15.187Z,21.10
2023-01-29T09:16:14.831Z,18.80
2023-01-29T09:17:14.985Z,20.90
2023-01-29T09:18:15.157Z,20.00
2023-01-29T09:19:15.371Z,18.80
2023-01-29T09:20:15.507Z,20.50
2023-01-29T09:21:15.681Z,18.90
2023-01-29T09:22:15.851Z,19.30
2023-01-29T09:23:16.041Z,19.00
2023-01-29T09:24:16.228Z,20.40
2023-01-29T09:25:16.684Z,19.30
2023-01-29T09:26:16.589Z,19.10
2023-01-29T09:27:16.714Z,18.20
2023-01-29T09:28:16.893Z,17.40
2023-01-29T09:29:17.103Z,19.40
2023-01-29T09:30:17.267Z,18.90
2023-01-29T09:31:17.574Z,18.30
2023-01-29T09:32:37.753Z,19.00
2023-01-29T09:33:18.750Z,18.10
2023-01-29T09:34:17.944Z,18.50
2023-01-29T09:35:18.396Z,17.50
2023-01-29T09:36:18.284Z,19.20
2023-01-29T09:37:19.332Z,18.80
2023-01-29T09:38:18.637Z,19.50
2023-01-29T09:39:18.805Z,18.70
2023-01-29T09:40:18.969Z,19.80
2023-01-29T09:41:19.124Z,19.40
2023-01-29T09:42:19.299Z,19.90
2023-01-29T09:43:19.452Z,17.70
2023-01-29T09:44:19.699Z,19.40
2023-01-29T09:45:19.911Z,17.60
2023-01-29T09:46:20.054Z,17.60
2023-01-29T09:47:20.140Z,16.10
2023-01-29T09:48:20.329Z,19.00
2023-01-29T09:49:20.518Z,17.60
2023-01-29T09:50:20.647Z,18.30
2023-01-29T09:51:20.802Z,19.30
2023-01-29T09:52:20.966Z,18.90
2023-01-29T09:53:21.118Z,18.50
2023-01-29T09:54:21.319Z,16.90
2023-01-29T09:55:21.448Z,38.10
2023-01-29T09:56:21.635Z,35.10
2023-01-29T09:57:21.787Z,33.40
2023-01-29T09:58:21.984Z,29.20
2023-01-29T09:59:22.162Z,27.40
2023-01-29T10:00:22.318Z,32.90
2023-01-29T10:01:22.637Z,30.60
2023-01-29T10:02:22.791Z,28.00
2023-01-29T10:03:22.871Z,31.70
2023-01-29T10:04:23.112Z,29.10
2023-01-29T10:05:23.220Z,26.20
2023-01-29T10:06:23.420Z,25.20
2023-01-29T10:07:23.562Z,25.30
2023-01-29T10:08:23.757Z,21.90
2023-01-29T10:09:23.932Z,25.90
2023-01-29T10:10:24.100Z,25.20
2023-01-29T10:11:24.246Z,27.50
2023-01-29T10:12:24.446Z,30.50
2023-01-29T10:13:24.600Z,27.60
2023-01-29T10:14:24.781Z,30.40
2023-01-29T10:15:24.941Z,29.50
2023-01-29T10:16:25.107Z,29.10
2023-01-29T10:17:25.316Z,28.50
2023-01-29T10:18:25.491Z,24.80
2023-01-29T10:19:25.683Z,24.00
2023-01-29T10:20:25.825Z,24.10
2023-01-29T10:21:26.084Z,22.30
2023-01-29T10:22:26.183Z,21.10
2023-01-29T10:23:26.343Z,20.70
2023-01-29T10:24:26.559Z,22.40
2023-01-29T10:25:26.722Z,19.10
2023-01-29T10:26:26.936Z,19.60
2023-01-29T10:27:27.060Z,17.60
2023-01-29T10:28:27.248Z,18.70
2023-01-29T10:29:27.483Z,19.00
2023-01-29T10:30:27.581Z,17.70
2023-01-29T10:31:27.909Z,17.30
2023-01-29T10:32:27.910Z,17.00
2023-01-29T10:33:29.554Z,17.20
2023-01-29T10:34:28.281Z,21.50
2023-01-29T10:35:28.445Z,20.90
2023-01-29T10:36:28.599Z,18.00
2023-01-29T10:37:28.784Z,17.60
2023-01-29T10:38:28.954Z,16.20
2023-01-29T10:39:29.122Z,18.50
2023-01-29T10:40:29.321Z,19.50
2023-01-29T10:41:29.533Z,18.60
2023-01-29T10:42:29.676Z,18.00
2023-01-29T10:43:29.838Z,16.60
2023-01-29T10:44:30.056Z,18.10
2023-01-29T10:45:30.155Z,16.30
2023-01-29T10:46:30.311Z,16.10
2023-01-29T10:47:30.766Z,16.90
2023-01-29T10:48:30.638Z,19.00
2023-01-29T10:49:30.801Z,14.70
2023-01-29T10:50:30.998Z,15.30
2023-01-29T10:51:31.151Z,14.80
2023-01-29T10:52:31.390Z,15.00
2023-01-29T10:53:31.511Z,15.30
2023-01-29T10:54:31.704Z,14.60
2023-01-29T10:55:31.892Z,14.20
2023-01-29T10:56:32.068Z,15.90
2023-01-29T10:57:32.254Z,15.20
2023-01-29T10:58:32.421Z,13.80
2023-01-29T10:59:32.614Z,14.80
2023-01-29T11:00:32.795Z,13.90
2023-01-29T11:01:33.124Z,13.90
2023-01-29T11:02:33.226Z,13.30
2023-01-29T11:03:33.426Z,14.20
2023-01-29T11:04:33.547Z,14.50
2023-01-29T11:05:33.713Z,13.40
2023-01-29T11:06:34.013Z,14.70
2023-01-29T11:07:34.090Z,13.50
2023-01-29T11:08:34.254Z,13.60
2023-01-29T11:09:34.454Z,13.50
2023-01-29T11:10:34.607Z,13.90
2023-01-29T11:11:34.803Z,13.70
2023-01-29T11:12:34.974Z,13.50
2023-01-29T11:13:35.176Z,12.80
2023-01-29T11:14:35.320Z,13.00
2023-01-29T11:15:35.553Z,14.00
2023-01-29T11:16:35.676Z,13.80
2023-01-29T11:17:35.889Z,14.30
2023-01-29T11:18:36.025Z,13.30
2023-01-29T11:19:36.243Z,14.30
2023-01-29T11:20:36.382Z,13.30
2023-01-29T11:21:36.570Z,13.20
2023-01-29T11:22:36.729Z,13.90
2023-01-29T11:23:36.943Z,13.00
2023-01-29T11:24:37.086Z,13.20
2023-01-29T11:25:37.310Z,13.60
2023-01-29T11:26:37.447Z,13.10
2023-01-29T11:27:37.632Z,14.40
2023-01-29T11:28:37.894Z,12.30
2023-01-29T11:29:38.301Z,13.60
2023-01-29T11:30:38.243Z,13.60
2023-01-29T11:31:38.382Z,12.30
2023-01-29T11:32:38.513Z,14.30
2023-01-29T11:33:38.885Z,13.40
2023-01-29T11:34:38.868Z,13.30
2023-01-29T11:35:39.078Z,12.60
2023-01-29T11:36:39.214Z,14.60
2023-01-29T11:37:39.412Z,14.00
2023-01-29T11:38:39.593Z,14.20
2023-01-29T11:39:39.781Z,13.30
2023-01-29T11:40:39.925Z,14.80
2023-01-29T11:41:40.094Z,13.30
2023-01-29T11:42:40.274Z,15.00
2023-01-29T11:43:40.477Z,13.30
2023-01-29T11:44:40.684Z,13.70
2023-01-29T11:45:40.812Z,14.10
2023-01-29T11:46:41.011Z,13.80
2023-01-29T11:47:41.195Z,14.90
2023-01-29T11:48:41.331Z,12.70
2023-01-29T11:49:41.523Z,14.40
2023-01-29T11:50:41.713Z,14.40
2023-01-29T11:51:41.876Z,14.30
2023-01-29T11:52:42.076Z,13.00
2023-01-29T11:53:42.220Z,13.70
2023-01-29T11:54:42.411Z,14.10
2023-01-29T11:55:50.579Z,13.90
2023-01-29T11:56:43.763Z,13.20
2023-01-29T11:57:42.942Z,14.60
2023-01-29T11:58:43.107Z,14.30
2023-01-29T11:59:43.320Z,13.70
2023-01-29T12:00:43.470Z,14.00
2023-01-29T12:01:43.643Z,14.60
2023-01-29T12:02:43.812Z,14.40
2023-01-29T12:03:44.106Z,13.90
2023-01-29T12:04:44.192Z,13.20
2023-01-29T12:05:44.422Z,12.70
2023-01-29T12:06:44.528Z,12.10
2023-01-29T12:07:44.735Z,14.10
2023-01-29T12:08:44.903Z,13.00
2023-01-29T12:09:45.090Z,13.10
2023-01-29T12:10:45.257Z,13.30
2023-01-29T12:11:45.449Z,12.70
2023-01-29T12:12:45.642Z,14.20
2023-01-29T12:13:45.808Z,14.20
2023-01-29T12:14:45.989Z,14.50
2023-01-29T12:15:46.170Z,13.00
2023-01-29T12:16:46.351Z,13.70
2023-01-29T12:17:46.553Z,13.70
2023-01-29T12:18:46.701Z,13.90
2023-01-29T12:19:46.891Z,14.40
2023-01-29T12:20:47.067Z,13.00
2023-01-29T12:21:47.241Z,14.20
2023-01-29T12:22:47.446Z,13.90
2023-01-29T12:23:47.572Z,13.90
2023-01-29T12:24:47.745Z,13.60
2023-01-29T12:25:47.941Z,15.70
2023-01-29T12:26:48.138Z,15.20
2023-01-29T12:27:48.314Z,15.00
2023-01-29T12:28:48.527Z,14.70
2023-01-29T12:29:48.628Z,13.90
2023-01-29T12:30:48.882Z,15.40
2023-01-29T12:31:49.102Z,14.90
2023-01-29T12:32:49.176Z,15.30
2023-01-29T12:33:49.348Z,15.00
2023-01-29T12:34:49.540Z,14.10
2023-01-29T12:35:49.706Z,13.60
2023-01-29T12:36:49.888Z,15.00
2023-01-29T12:37:50.097Z,14.40
2023-01-29T12:38:50.238Z,14.30
2023-01-29T12:39:50.415Z,14.20
2023-01-29T12:40:50.605Z,14.10
2023-01-29T12:41:50.792Z,13.70
2023-01-29T12:42:50.988Z,15.10
2023-01-29T12:43:51.121Z,15.40
2023-01-29T12:44:51.293Z,14.10
2023-01-29T12:45:51.479Z,13.90
2023-01-29T12:46:51.678Z,12.30
2023-01-29T12:47:51.859Z,13.80
2023-01-29T12:48:52.008Z,13.90
2023-01-29T12:49:52.212Z,13.20
2023-01-29T12:50:52.367Z,13.80
2023-01-29T12:51:52.555Z,14.20
2023-01-29T12:52:52.741Z,13.50
2023-01-29T12:53:52.946Z,13.80
2023-01-29T12:54:53.085Z,14.20
2023-01-29T12:55:53.273Z,13.60